Terminal Aerodrome Forecast
Issued by NWS

Current Version | Previous Version | Text Only | Print | Product List | Glossary Off
Versions: 1 2 3 4 5 6 7 8 9 10 11 12 13 14 15 16 17 18 19 20 21 22 23 24 25 26 27 28 29 30 31 32 33 34 35 36 37 38 39 40 41 42 43 44 45 46 47 48 49 50

240
FTUS41 KRNK 230522
TAFLWB
TAF
KLWB 230522Z 2306/2406 02003KT P6SM BKN080
     FM230900 00000KT P6SM BKN060
     FM231300 07004KT P6SM -RA OVC035
     FM231600 09005KT P6SM -RA OVC015
     FM232100 03005KT 5SM -RA BR OVC009=

USA.gov is the U.S. government's official web portal to all federal, state and local government web resources and services.